sensor_id;sensor_type;location;lat;lon;timestamp;P1;durP1;ratioP1;P2;durP2;ratioP2
422;SDS011;198;48.752;9.180;2022-09-09T00:00:37;8.33;;;2.70;;
422;SDS011;198;48.752;9.180;2022-09-09T00:03:12;4.23;;;1.70;;
422;SDS011;198;48.752;9.180;2022-09-09T00:05:48;3.50;;;1.43;;
422;SDS011;198;48.752;9.180;2022-09-09T00:11:36;4.33;;;1.33;;
422;SDS011;198;48.752;9.180;2022-09-09T00:14:17;1.57;;;1.33;;
422;SDS011;198;48.752;9.180;2022-09-09T00:16:58;1.43;;;1.23;;
422;SDS011;198;48.752;9.180;2022-09-09T00:24:53;5.43;;;1.50;;
422;SDS011;198;48.752;9.180;2022-09-09T00:27:25;2.67;;;1.57;;
422;SDS011;198;48.752;9.180;2022-09-09T00:30:12;9.33;;;2.07;;
422;SDS011;198;48.752;9.180;2022-09-09T00:32:41;2.03;;;1.47;;
422;SDS011;198;48.752;9.180;2022-09-09T00:37:47;10.23;;;1.50;;
422;SDS011;198;48.752;9.180;2022-09-09T00:40:31;1.93;;;1.30;;
422;SDS011;198;48.752;9.180;2022-09-09T00:54:14;2.77;;;1.20;;
422;SDS011;198;48.752;9.180;2022-09-09T00:56:53;2.20;;;1.30;;
422;SDS011;198;48.752;9.180;2022-09-09T00:59:32;1.43;;;1.27;;
422;SDS011;198;48.752;9.180;2022-09-09T01:02:01;2.83;;;1.10;;
422;SDS011;198;48.752;9.180;2022-09-09T01:04:29;5.40;;;1.30;;
422;SDS011;198;48.752;9.180;2022-09-09T01:07:03;4.07;;;1.67;;
422;SDS011;198;48.752;9.180;2022-09-09T01:10:00;5.57;;;1.50;;
422;SDS011;198;48.752;9.180;2022-09-09T01:12:28;5.70;;;1.30;;
422;SDS011;198;48.752;9.180;2022-09-09T01:15:14;2.93;;;1.50;;
422;SDS011;198;48.752;9.180;2022-09-09T01:17:49;2.50;;;1.30;;
422;SDS011;198;48.752;9.180;2022-09-09T01:20:23;2.00;;;1.20;;
422;SDS011;198;48.752;9.180;2022-09-09T01:22:56;1.20;;;1.10;;
422;SDS011;198;48.752;9.180;2022-09-09T01:28:15;5.77;;;1.53;;
422;SDS011;198;48.752;9.180;2022-09-09T01:30:44;4.83;;;1.60;;
422;SDS011;198;48.752;9.180;2022-09-09T01:33:14;2.60;;;1.10;;
422;SDS011;198;48.752;9.180;2022-09-09T01:35:46;4.23;;;1.47;;
422;SDS011;198;48.752;9.180;2022-09-09T01:38:15;3.17;;;1.43;;
422;SDS011;198;48.752;9.180;2022-09-09T01:40:42;3.33;;;1.20;;
422;SDS011;198;48.752;9.180;2022-09-09T01:43:07;4.10;;;1.17;;
422;SDS011;198;48.752;9.180;2022-09-09T01:45:33;5.70;;;1.10;;
422;SDS011;198;48.752;9.180;2022-09-09T01:47:59;1.23;;;1.17;;
422;SDS011;198;48.752;9.180;2022-09-09T01:50:25;4.63;;;1.37;;
422;SDS011;198;48.752;9.180;2022-09-09T01:52:53;2.50;;;1.00;;
422;SDS011;198;48.752;9.180;2022-09-09T01:58:47;6.80;;;1.47;;
422;SDS011;198;48.752;9.180;2022-09-09T02:04:17;3.73;;;1.50;;
422;SDS011;198;48.752;9.180;2022-09-09T02:06:43;5.87;;;1.50;;
422;SDS011;198;48.752;9.180;2022-09-09T02:09:10;2.97;;;1.00;;
422;SDS011;198;48.752;9.180;2022-09-09T02:11:38;6.83;;;1.40;;
422;SDS011;198;48.752;9.180;2022-09-09T02:14:14;2.60;;;1.40;;
422;SDS011;198;48.752;9.180;2022-09-09T02:16:44;1.53;;;1.37;;
422;SDS011;198;48.752;9.180;2022-09-09T02:19:25;4.43;;;1.53;;
422;SDS011;198;48.752;9.180;2022-09-09T02:21:57;4.23;;;1.30;;
422;SDS011;198;48.752;9.180;2022-09-09T02:24:24;4.43;;;1.27;;
422;SDS011;198;48.752;9.180;2022-09-09T02:26:53;4.37;;;1.87;;
422;SDS011;198;48.752;9.180;2022-09-09T02:29:23;3.70;;;1.30;;
422;SDS011;198;48.752;9.180;2022-09-09T02:31:57;1.57;;;1.23;;
422;SDS011;198;48.752;9.180;2022-09-09T02:34:27;3.37;;;1.73;;
422;SDS011;198;48.752;9.180;2022-09-09T02:36:55;3.13;;;1.30;;
422;SDS011;198;48.752;9.180;2022-09-09T02:39:24;1.73;;;1.40;;
422;SDS011;198;48.752;9.180;2022-09-09T02:41:50;1.50;;;1.20;;
422;SDS011;198;48.752;9.180;2022-09-09T02:44:17;8.70;;;1.30;;
422;SDS011;198;48.752;9.180;2022-09-09T02:52:24;1.10;;;1.00;;
422;SDS011;198;48.752;9.180;2022-09-09T02:54:57;1.47;;;1.10;;
422;SDS011;198;48.752;9.180;2022-09-09T02:57:30;6.30;;;1.20;;
422;SDS011;198;48.752;9.180;2022-09-09T02:59:58;3.20;;;1.13;;
422;SDS011;198;48.752;9.180;2022-09-09T03:02:25;1.73;;;1.10;;
422;SDS011;198;48.752;9.180;2022-09-09T03:04:50;2.40;;;1.37;;
422;SDS011;198;48.752;9.180;2022-09-09T03:07:17;5.83;;;1.50;;
422;SDS011;198;48.752;9.180;2022-09-09T03:09:43;4.87;;;1.23;;
422;SDS011;198;48.752;9.180;2022-09-09T03:12:09;7.77;;;1.60;;
422;SDS011;198;48.752;9.180;2022-09-09T03:14:36;2.30;;;0.93;;
422;SDS011;198;48.752;9.180;2022-09-09T03:17:03;3.13;;;1.03;;
422;SDS011;198;48.752;9.180;2022-09-09T03:19:30;2.20;;;0.97;;
422;SDS011;198;48.752;9.180;2022-09-09T03:21:56;4.53;;;1.00;;
422;SDS011;198;48.752;9.180;2022-09-09T03:24:22;4.40;;;1.33;;
422;SDS011;198;48.752;9.180;2022-09-09T03:26:47;5.07;;;1.23;;
422;SDS011;198;48.752;9.180;2022-09-09T03:29:13;6.33;;;1.00;;
422;SDS011;198;48.752;9.180;2022-09-09T03:31:39;2.20;;;1.00;;
422;SDS011;198;48.752;9.180;2022-09-09T03:34:05;2.40;;;1.30;;
422;SDS011;198;48.752;9.180;2022-09-09T03:36:31;1.43;;;1.20;;
422;SDS011;198;48.752;9.180;2022-09-09T03:38:56;2.53;;;1.43;;
422;SDS011;198;48.752;9.180;2022-09-09T03:41:23;1.10;;;1.00;;
422;SDS011;198;48.752;9.180;2022-09-09T03:43:52;1.20;;;0.97;;
422;SDS011;198;48.752;9.180;2022-09-09T03:46:18;1.40;;;1.20;;
422;SDS011;198;48.752;9.180;2022-09-09T03:48:45;2.40;;;1.20;;
422;SDS011;198;48.752;9.180;2022-09-09T03:51:11;2.17;;;1.30;;
422;SDS011;198;48.752;9.180;2022-09-09T03:53:36;1.07;;;0.97;;
422;SDS011;198;48.752;9.180;2022-09-09T03:56:03;1.27;;;0.97;;
422;SDS011;198;48.752;9.180;2022-09-09T03:58:31;2.60;;;1.30;;
422;SDS011;198;48.752;9.180;2022-09-09T04:00:59;1.80;;;0.90;;
422;SDS011;198;48.752;9.180;2022-09-09T04:03:27;1.90;;;1.10;;
422;SDS011;198;48.752;9.180;2022-09-09T04:05:53;2.83;;;1.33;;
422;SDS011;198;48.752;9.180;2022-09-09T04:08:20;5.17;;;1.40;;
422;SDS011;198;48.752;9.180;2022-09-09T04:10:47;2.13;;;1.10;;
422;SDS011;198;48.752;9.180;2022-09-09T04:13:14;1.60;;;0.97;;
422;SDS011;198;48.752;9.180;2022-09-09T04:15:42;2.43;;;1.20;;
422;SDS011;198;48.752;9.180;2022-09-09T04:18:09;1.60;;;1.50;;
422;SDS011;198;48.752;9.180;2022-09-09T04:20:35;2.10;;;1.30;;
422;SDS011;198;48.752;9.180;2022-09-09T04:23:00;2.07;;;1.10;;
422;SDS011;198;48.752;9.180;2022-09-09T04:25:26;4.07;;;1.03;;
422;SDS011;198;48.752;9.180;2022-09-09T04:27:55;9.73;;;1.00;;
422;SDS011;198;48.752;9.180;2022-09-09T04:30:22;4.03;;;1.30;;
422;SDS011;198;48.752;9.180;2022-09-09T04:32:48;6.10;;;1.87;;
422;SDS011;198;48.752;9.180;2022-09-09T04:35:13;8.90;;;1.60;;
422;SDS011;198;48.752;9.180;2022-09-09T04:37:39;3.17;;;1.27;;
422;SDS011;198;48.752;9.180;2022-09-09T04:40:05;4.23;;;1.23;;
422;SDS011;198;48.752;9.180;2022-09-09T04:42:34;3.33;;;1.30;;
422;SDS011;198;48.752;9.180;2022-09-09T04:45:00;3.30;;;1.33;;
422;SDS011;198;48.752;9.180;2022-09-09T04:47:26;7.50;;;1.57;;
422;SDS011;198;48.752;9.180;2022-09-09T04:49:52;1.63;;;1.20;;
422;SDS011;198;48.752;9.180;2022-09-09T04:52:19;7.10;;;2.03;;
422;SDS011;198;48.752;9.180;2022-09-09T04:54:45;5.73;;;1.60;;
422;SDS011;198;48.752;9.180;2022-09-09T04:57:10;8.30;;;1.53;;
422;SDS011;198;48.752;9.180;2022-09-09T04:59:36;2.40;;;1.27;;
422;SDS011;198;48.752;9.180;2022-09-09T05:02:04;4.60;;;1.50;;
422;SDS011;198;48.752;9.180;2022-09-09T05:04:29;3.83;;;1.80;;
422;SDS011;198;48.752;9.180;2022-09-09T05:06:55;6.60;;;1.60;;
422;SDS011;198;48.752;9.180;2022-09-09T05:09:20;4.30;;;1.50;;
422;SDS011;198;48.752;9.180;2022-09-09T05:11:46;5.90;;;1.53;;
422;SDS011;198;48.752;9.180;2022-09-09T05:14:12;3.60;;;1.90;;
422;SDS011;198;48.752;9.180;2022-09-09T05:16:37;2.73;;;1.63;;
422;SDS011;198;48.752;9.180;2022-09-09T05:19:03;5.53;;;1.90;;
422;SDS011;198;48.752;9.180;2022-09-09T05:21:29;10.07;;;1.37;;
422;SDS011;198;48.752;9.180;2022-09-09T05:23:55;3.83;;;1.33;;
422;SDS011;198;48.752;9.180;2022-09-09T05:26:22;2.20;;;1.70;;
422;SDS011;198;48.752;9.180;2022-09-09T05:28:48;2.73;;;1.67;;
422;SDS011;198;48.752;9.180;2022-09-09T05:31:14;4.40;;;1.90;;
422;SDS011;198;48.752;9.180;2022-09-09T05:33:41;7.00;;;1.67;;
422;SDS011;198;48.752;9.180;2022-09-09T05:36:11;5.43;;;1.40;;
422;SDS011;198;48.752;9.180;2022-09-09T05:38:38;7.50;;;1.60;;
422;SDS011;198;48.752;9.180;2022-09-09T05:41:05;2.53;;;1.40;;
422;SDS011;198;48.752;9.180;2022-09-09T05:43:31;3.80;;;1.70;;
422;SDS011;198;48.752;9.180;2022-09-09T05:46:02;1.33;;;1.10;;
422;SDS011;198;48.752;9.180;2022-09-09T05:48:36;4.80;;;1.50;;
422;SDS011;198;48.752;9.180;2022-09-09T05:51:04;3.50;;;1.40;;
422;SDS011;198;48.752;9.180;2022-09-09T05:53:32;2.60;;;1.77;;
422;SDS011;198;48.752;9.180;2022-09-09T05:56:02;5.63;;;1.50;;
422;SDS011;198;48.752;9.180;2022-09-09T05:58:30;1.40;;;1.30;;
422;SDS011;198;48.752;9.180;2022-09-09T06:01:00;3.60;;;1.70;;
422;SDS011;198;48.752;9.180;2022-09-09T06:03:37;3.27;;;1.10;;
422;SDS011;198;48.752;9.180;2022-09-09T06:06:04;8.70;;;1.90;;
422;SDS011;198;48.752;9.180;2022-09-09T06:08:35;2.57;;;1.27;;
422;SDS011;198;48.752;9.180;2022-09-09T06:11:04;1.70;;;1.40;;
422;SDS011;198;48.752;9.180;2022-09-09T06:13:31;4.20;;;1.83;;
422;SDS011;198;48.752;9.180;2022-09-09T06:15:57;5.13;;;1.40;;
422;SDS011;198;48.752;9.180;2022-09-09T06:18:23;5.67;;;1.67;;
422;SDS011;198;48.752;9.180;2022-09-09T06:20:53;3.53;;;1.67;;
422;SDS011;198;48.752;9.180;2022-09-09T06:23:23;8.87;;;1.70;;
422;SDS011;198;48.752;9.180;2022-09-09T06:25:50;11.83;;;1.40;;
422;SDS011;198;48.752;9.180;2022-09-09T06:28:16;6.60;;;1.50;;
422;SDS011;198;48.752;9.180;2022-09-09T06:30:42;2.93;;;1.30;;
422;SDS011;198;48.752;9.180;2022-09-09T06:33:08;1.47;;;1.47;;
422;SDS011;198;48.752;9.180;2022-09-09T06:35:34;3.97;;;1.30;;
422;SDS011;198;48.752;9.180;2022-09-09T06:38:00;5.50;;;1.70;;
422;SDS011;198;48.752;9.180;2022-09-09T06:40:25;6.33;;;1.60;;
422;SDS011;198;48.752;9.180;2022-09-09T06:42:51;3.03;;;1.80;;
422;SDS011;198;48.752;9.180;2022-09-09T06:45:16;4.00;;;1.90;;
422;SDS011;198;48.752;9.180;2022-09-09T06:47:42;3.20;;;1.90;;
422;SDS011;198;48.752;9.180;2022-09-09T06:50:08;8.20;;;2.47;;
422;SDS011;198;48.752;9.180;2022-09-09T06:52:35;2.30;;;1.33;;
422;SDS011;198;48.752;9.180;2022-09-09T06:55:00;1.60;;;1.30;;
422;SDS011;198;48.752;9.180;2022-09-09T06:57:26;3.23;;;1.33;;
422;SDS011;198;48.752;9.180;2022-09-09T06:59:51;7.30;;;1.40;;
422;SDS011;198;48.752;9.180;2022-09-09T07:02:17;6.50;;;1.90;;
422;SDS011;198;48.752;9.180;2022-09-09T07:04:43;7.63;;;2.10;;
422;SDS011;198;48.752;9.180;2022-09-09T07:07:09;9.10;;;1.87;;
422;SDS011;198;48.752;9.180;2022-09-09T07:09:37;2.87;;;1.47;;
422;SDS011;198;48.752;9.180;2022-09-09T07:12:02;11.57;;;1.97;;
422;SDS011;198;48.752;9.180;2022-09-09T07:14:30;2.73;;;1.33;;
422;SDS011;198;48.752;9.180;2022-09-09T07:16:56;2.33;;;1.40;;
422;SDS011;198;48.752;9.180;2022-09-09T07:19:22;4.90;;;1.90;;
422;SDS011;198;48.752;9.180;2022-09-09T07:21:47;10.30;;;1.60;;
422;SDS011;198;48.752;9.180;2022-09-09T07:24:13;6.40;;;1.30;;
422;SDS011;198;48.752;9.180;2022-09-09T07:26:39;3.07;;;1.50;;
422;SDS011;198;48.752;9.180;2022-09-09T07:29:05;1.70;;;1.60;;
422;SDS011;198;48.752;9.180;2022-09-09T07:31:32;2.30;;;1.40;;
422;SDS011;198;48.752;9.180;2022-09-09T07:34:01;3.80;;;1.57;;
422;SDS011;198;48.752;9.180;2022-09-09T07:36:29;4.20;;;1.47;;
422;SDS011;198;48.752;9.180;2022-09-09T07:38:57;4.87;;;1.40;;
422;SDS011;198;48.752;9.180;2022-09-09T07:41:28;2.80;;;1.40;;
422;SDS011;198;48.752;9.180;2022-09-09T07:44:09;14.10;;;1.37;;
422;SDS011;198;48.752;9.180;2022-09-09T07:46:37;2.07;;;1.23;;
422;SDS011;198;48.752;9.180;2022-09-09T07:49:06;5.40;;;1.40;;
422;SDS011;198;48.752;9.180;2022-09-09T07:51:34;3.57;;;1.30;;
422;SDS011;198;48.752;9.180;2022-09-09T07:54:02;1.40;;;1.40;;
422;SDS011;198;48.752;9.180;2022-09-09T07:56:30;2.17;;;1.27;;
422;SDS011;198;48.752;9.180;2022-09-09T07:58:56;5.30;;;1.73;;
422;SDS011;198;48.752;9.180;2022-09-09T08:01:25;6.17;;;1.23;;
422;SDS011;198;48.752;9.180;2022-09-09T08:03:57;2.33;;;1.20;;
422;SDS011;198;48.752;9.180;2022-09-09T08:06:26;6.40;;;2.40;;
422;SDS011;198;48.752;9.180;2022-09-09T08:09:03;5.20;;;1.17;;
422;SDS011;198;48.752;9.180;2022-09-09T08:11:29;3.07;;;1.17;;
422;SDS011;198;48.752;9.180;2022-09-09T08:13:55;10.80;;;1.33;;
422;SDS011;198;48.752;9.180;2022-09-09T08:16:23;3.80;;;1.47;;
422;SDS011;198;48.752;9.180;2022-09-09T08:18:50;5.47;;;1.80;;
422;SDS011;198;48.752;9.180;2022-09-09T08:21:20;2.97;;;1.17;;
422;SDS011;198;48.752;9.180;2022-09-09T08:23:49;6.37;;;1.50;;
422;SDS011;198;48.752;9.180;2022-09-09T08:26:18;10.90;;;2.30;;
422;SDS011;198;48.752;9.180;2022-09-09T08:28:49;5.13;;;1.33;;
422;SDS011;198;48.752;9.180;2022-09-09T08:31:18;3.70;;;1.20;;
422;SDS011;198;48.752;9.180;2022-09-09T08:33:46;2.77;;;1.90;;
422;SDS011;198;48.752;9.180;2022-09-09T08:36:13;1.30;;;1.23;;
422;SDS011;198;48.752;9.180;2022-09-09T08:38:40;5.07;;;1.20;;
422;SDS011;198;48.752;9.180;2022-09-09T08:41:14;4.23;;;1.57;;
422;SDS011;198;48.752;9.180;2022-09-09T08:43:58;8.17;;;1.20;;
422;SDS011;198;48.752;9.180;2022-09-09T08:46:38;2.77;;;1.13;;
422;SDS011;198;48.752;9.180;2022-09-09T08:51:54;6.27;;;1.40;;
422;SDS011;198;48.752;9.180;2022-09-09T08:54:22;7.73;;;1.40;;
422;SDS011;198;48.752;9.180;2022-09-09T08:56:48;5.70;;;1.30;;
422;SDS011;198;48.752;9.180;2022-09-09T08:59:15;6.03;;;1.10;;
422;SDS011;198;48.752;9.180;2022-09-09T09:05:03;10.03;;;1.50;;
422;SDS011;198;48.752;9.180;2022-09-09T09:12:54;9.60;;;1.97;;
422;SDS011;198;48.752;9.180;2022-09-09T09:15:23;8.30;;;1.90;;
422;SDS011;198;48.752;9.180;2022-09-09T09:17:52;7.00;;;1.03;;
422;SDS011;198;48.752;9.180;2022-09-09T09:20:20;15.60;;;2.03;;
422;SDS011;198;48.752;9.180;2022-09-09T09:22:51;11.20;;;1.67;;
422;SDS011;198;48.752;9.180;2022-09-09T09:25:21;4.33;;;1.37;;
422;SDS011;198;48.752;9.180;2022-09-09T09:30:40;15.97;;;1.40;;
422;SDS011;198;48.752;9.180;2022-09-09T09:35:49;3.23;;;1.37;;
422;SDS011;198;48.752;9.180;2022-09-09T09:38:16;4.30;;;1.23;;
422;SDS011;198;48.752;9.180;2022-09-09T09:40:51;12.10;;;1.70;;
422;SDS011;198;48.752;9.180;2022-09-09T09:43:36;3.17;;;1.30;;
422;SDS011;198;48.752;9.180;2022-09-09T09:46:04;9.20;;;1.73;;
422;SDS011;198;48.752;9.180;2022-09-09T09:48:42;5.10;;;1.60;;
422;SDS011;198;48.752;9.180;2022-09-09T09:51:09;1.27;;;1.10;;
422;SDS011;198;48.752;9.180;2022-09-09T09:53:38;2.77;;;1.30;;
422;SDS011;198;48.752;9.180;2022-09-09T09:56:08;2.90;;;0.90;;
422;SDS011;198;48.752;9.180;2022-09-09T09:58:39;15.17;;;1.37;;
422;SDS011;198;48.752;9.180;2022-09-09T10:01:25;5.67;;;1.37;;
422;SDS011;198;48.752;9.180;2022-09-09T10:03:55;4.00;;;1.10;;
422;SDS011;198;48.752;9.180;2022-09-09T10:06:30;1.70;;;0.90;;
422;SDS011;198;48.752;9.180;2022-09-09T10:08:58;1.57;;;0.80;;
422;SDS011;198;48.752;9.180;2022-09-09T10:11:37;2.97;;;1.40;;
422;SDS011;198;48.752;9.180;2022-09-09T10:14:24;2.50;;;0.93;;
422;SDS011;198;48.752;9.180;2022-09-09T10:17:20;1.40;;;1.00;;
422;SDS011;198;48.752;9.180;2022-09-09T10:22:45;4.07;;;0.93;;
422;SDS011;198;48.752;9.180;2022-09-09T10:36:19;1.53;;;0.93;;
422;SDS011;198;48.752;9.180;2022-09-09T10:38:45;1.40;;;1.00;;
422;SDS011;198;48.752;9.180;2022-09-09T10:43:53;3.90;;;1.10;;
422;SDS011;198;48.752;9.180;2022-09-09T10:46:40;1.83;;;0.80;;
422;SDS011;198;48.752;9.180;2022-09-09T10:52:55;2.80;;;1.43;;
422;SDS011;198;48.752;9.180;2022-09-09T10:55:35;2.07;;;1.00;;
422;SDS011;198;48.752;9.180;2022-09-09T10:58:10;4.90;;;1.30;;
422;SDS011;198;48.752;9.180;2022-09-09T11:00:44;3.17;;;1.30;;
422;SDS011;198;48.752;9.180;2022-09-09T11:03:19;2.50;;;1.37;;
422;SDS011;198;48.752;9.180;2022-09-09T11:06:28;2.93;;;1.27;;
422;SDS011;198;48.752;9.180;2022-09-09T11:08:49;1.60;;;1.00;;
422;SDS011;198;48.752;9.180;2022-09-09T11:11:29;1.83;;;1.20;;
422;SDS011;198;48.752;9.180;2022-09-09T11:14:15;2.77;;;1.43;;
422;SDS011;198;48.752;9.180;2022-09-09T11:17:05;7.57;;;1.67;;
422;SDS011;198;48.752;9.180;2022-09-09T11:19:38;2.40;;;1.40;;
422;SDS011;198;48.752;9.180;2022-09-09T11:22:07;4.27;;;1.23;;
422;SDS011;198;48.752;9.180;2022-09-09T11:27:51;2.40;;;1.10;;
422;SDS011;198;48.752;9.180;2022-09-09T11:33:14;2.50;;;1.30;;
422;SDS011;198;48.752;9.180;2022-09-09T11:36:03;2.37;;;1.20;;
422;SDS011;198;48.752;9.180;2022-09-09T11:38:47;2.30;;;1.23;;
422;SDS011;198;48.752;9.180;2022-09-09T11:41:16;2.20;;;1.00;;
422;SDS011;198;48.752;9.180;2022-09-09T11:43:43;0.93;;;0.80;;
422;SDS011;198;48.752;9.180;2022-09-09T11:46:11;1.03;;;0.97;;
422;SDS011;198;48.752;9.180;2022-09-09T11:48:41;2.03;;;1.00;;
422;SDS011;198;48.752;9.180;2022-09-09T11:53:48;0.77;;;0.70;;
422;SDS011;198;48.752;9.180;2022-09-09T11:56:26;0.73;;;0.67;;
422;SDS011;198;48.752;9.180;2022-09-09T12:02:35;4.90;;;0.70;;
422;SDS011;198;48.752;9.180;2022-09-09T12:04:57;2.93;;;0.80;;
422;SDS011;198;48.752;9.180;2022-09-09T12:10:31;1.03;;;0.80;;
422;SDS011;198;48.752;9.180;2022-09-09T12:13:09;1.07;;;0.60;;
422;SDS011;198;48.752;9.180;2022-09-09T12:15:49;1.00;;;0.90;;
422;SDS011;198;48.752;9.180;2022-09-09T12:18:23;0.77;;;0.70;;
422;SDS011;198;48.752;9.180;2022-09-09T12:23:45;3.10;;;1.00;;
422;SDS011;198;48.752;9.180;2022-09-09T12:29:21;1.57;;;0.80;;
422;SDS011;198;48.752;9.180;2022-09-09T12:31:57;2.70;;;1.47;;
422;SDS011;198;48.752;9.180;2022-09-09T12:34:41;0.70;;;0.70;;
422;SDS011;198;48.752;9.180;2022-09-09T12:40:23;4.43;;;0.90;;
422;SDS011;198;48.752;9.180;2022-09-09T12:42:50;1.33;;;0.80;;
422;SDS011;198;48.752;9.180;2022-09-09T12:45:20;2.63;;;1.03;;
422;SDS011;198;48.752;9.180;2022-09-09T12:47:56;2.57;;;0.77;;
422;SDS011;198;48.752;9.180;2022-09-09T12:50:23;3.07;;;0.90;;
422;SDS011;198;48.752;9.180;2022-09-09T12:52:55;3.87;;;1.43;;
422;SDS011;198;48.752;9.180;2022-09-09T12:55:24;3.10;;;1.20;;
422;SDS011;198;48.752;9.180;2022-09-09T12:57:54;2.13;;;1.30;;
422;SDS011;198;48.752;9.180;2022-09-09T13:00:22;1.23;;;0.80;;
422;SDS011;198;48.752;9.180;2022-09-09T13:05:26;1.00;;;0.90;;
422;SDS011;198;48.752;9.180;2022-09-09T13:08:02;0.83;;;0.80;;
422;SDS011;198;48.752;9.180;2022-09-09T13:10:29;1.87;;;0.93;;
422;SDS011;198;48.752;9.180;2022-09-09T13:12:59;2.77;;;0.90;;
422;SDS011;198;48.752;9.180;2022-09-09T13:15:26;2.17;;;0.87;;
422;SDS011;198;48.752;9.180;2022-09-09T13:17:55;1.90;;;0.90;;
422;SDS011;198;48.752;9.180;2022-09-09T13:20:26;2.57;;;0.90;;
422;SDS011;198;48.752;9.180;2022-09-09T13:22:53;4.07;;;0.83;;
422;SDS011;198;48.752;9.180;2022-09-09T13:25:21;1.40;;;1.00;;
422;SDS011;198;48.752;9.180;2022-09-09T13:27:51;0.90;;;0.80;;
422;SDS011;198;48.752;9.180;2022-09-09T13:33:06;4.80;;;0.83;;
422;SDS011;198;48.752;9.180;2022-09-09T13:35:55;1.27;;;0.90;;
422;SDS011;198;48.752;9.180;2022-09-09T13:38:22;2.30;;;1.00;;
422;SDS011;198;48.752;9.180;2022-09-09T13:40:58;2.97;;;0.70;;
422;SDS011;198;48.752;9.180;2022-09-09T13:43:42;5.17;;;0.90;;
422;SDS011;198;48.752;9.180;2022-09-09T13:46:26;4.83;;;1.10;;
422;SDS011;198;48.752;9.180;2022-09-09T13:48:59;1.00;;;0.80;;
422;SDS011;198;48.752;9.180;2022-09-09T13:51:45;5.70;;;1.00;;
422;SDS011;198;48.752;9.180;2022-09-09T13:54:16;2.67;;;1.27;;
422;SDS011;198;48.752;9.180;2022-09-09T13:56:43;3.67;;;1.03;;
422;SDS011;198;48.752;9.180;2022-09-09T13:59:10;1.40;;;0.90;;
422;SDS011;198;48.752;9.180;2022-09-09T14:01:37;1.60;;;0.87;;
422;SDS011;198;48.752;9.180;2022-09-09T14:04:03;4.50;;;1.13;;
422;SDS011;198;48.752;9.180;2022-09-09T14:06:30;2.47;;;1.00;;
422;SDS011;198;48.752;9.180;2022-09-09T14:08:57;1.20;;;0.67;;
422;SDS011;198;48.752;9.180;2022-09-09T14:11:23;1.80;;;1.00;;
422;SDS011;198;48.752;9.180;2022-09-09T14:13:48;2.03;;;1.00;;
422;SDS011;198;48.752;9.180;2022-09-09T14:16:17;2.20;;;1.00;;
422;SDS011;198;48.752;9.180;2022-09-09T14:18:46;1.00;;;0.80;;
422;SDS011;198;48.752;9.180;2022-09-09T14:21:11;1.17;;;0.87;;
422;SDS011;198;48.752;9.180;2022-09-09T14:23:37;1.60;;;0.90;;
422;SDS011;198;48.752;9.180;2022-09-09T14:26:04;2.00;;;0.97;;
422;SDS011;198;48.752;9.180;2022-09-09T14:28:30;0.97;;;0.80;;
422;SDS011;198;48.752;9.180;2022-09-09T14:30:59;6.63;;;1.00;;
422;SDS011;198;48.752;9.180;2022-09-09T14:33:25;1.43;;;0.60;;
422;SDS011;198;48.752;9.180;2022-09-09T14:35:57;1.90;;;0.80;;
422;SDS011;198;48.752;9.180;2022-09-09T14:38:30;1.60;;;0.60;;
422;SDS011;198;48.752;9.180;2022-09-09T14:40:58;1.50;;;0.87;;
422;SDS011;198;48.752;9.180;2022-09-09T14:43:24;2.07;;;0.83;;
422;SDS011;198;48.752;9.180;2022-09-09T14:45:51;1.57;;;0.90;;
422;SDS011;198;48.752;9.180;2022-09-09T14:48:16;1.90;;;1.00;;
422;SDS011;198;48.752;9.180;2022-09-09T14:50:42;0.80;;;0.80;;
422;SDS011;198;48.752;9.180;2022-09-09T14:53:08;0.97;;;0.73;;
422;SDS011;198;48.752;9.180;2022-09-09T14:55:34;1.40;;;0.80;;
422;SDS011;198;48.752;9.180;2022-09-09T14:58:00;0.70;;;0.60;;
422;SDS011;198;48.752;9.180;2022-09-09T15:00:26;2.27;;;0.97;;
422;SDS011;198;48.752;9.180;2022-09-09T15:02:52;1.23;;;0.87;;
422;SDS011;198;48.752;9.180;2022-09-09T15:05:18;1.80;;;0.80;;
422;SDS011;198;48.752;9.180;2022-09-09T15:07:44;1.27;;;0.70;;
422;SDS011;198;48.752;9.180;2022-09-09T15:10:09;1.90;;;0.90;;
422;SDS011;198;48.752;9.180;2022-09-09T15:12:35;2.00;;;0.70;;
422;SDS011;198;48.752;9.180;2022-09-09T15:15:02;0.90;;;0.80;;
422;SDS011;198;48.752;9.180;2022-09-09T15:17:28;0.90;;;0.60;;
422;SDS011;198;48.752;9.180;2022-09-09T15:19:53;1.93;;;0.80;;
422;SDS011;198;48.752;9.180;2022-09-09T15:22:19;2.03;;;0.90;;
422;SDS011;198;48.752;9.180;2022-09-09T15:24:45;3.23;;;1.00;;
422;SDS011;198;48.752;9.180;2022-09-09T15:27:10;4.83;;;1.30;;
422;SDS011;198;48.752;9.180;2022-09-09T15:29:36;3.70;;;1.23;;
422;SDS011;198;48.752;9.180;2022-09-09T15:32:03;1.20;;;1.00;;
422;SDS011;198;48.752;9.180;2022-09-09T15:34:28;2.90;;;0.90;;
422;SDS011;198;48.752;9.180;2022-09-09T15:36:54;2.60;;;1.00;;
422;SDS011;198;48.752;9.180;2022-09-09T15:39:20;2.33;;;1.00;;
422;SDS011;198;48.752;9.180;2022-09-09T15:41:46;2.10;;;1.10;;
422;SDS011;198;48.752;9.180;2022-09-09T15:44:13;4.37;;;1.10;;
422;SDS011;198;48.752;9.180;2022-09-09T15:46:41;2.83;;;1.00;;
422;SDS011;198;48.752;9.180;2022-09-09T15:49:15;9.83;;;1.30;;
422;SDS011;198;48.752;9.180;2022-09-09T15:51:47;5.20;;;0.97;;
422;SDS011;198;48.752;9.180;2022-09-09T15:54:20;3.17;;;1.30;;
422;SDS011;198;48.752;9.180;2022-09-09T15:56:52;3.60;;;1.00;;
422;SDS011;198;48.752;9.180;2022-09-09T15:59:20;3.60;;;1.30;;
422;SDS011;198;48.752;9.180;2022-09-09T16:01:47;1.17;;;1.00;;
422;SDS011;198;48.752;9.180;2022-09-09T16:04:16;2.50;;;0.87;;
422;SDS011;198;48.752;9.180;2022-09-09T16:06:48;3.80;;;1.23;;
422;SDS011;198;48.752;9.180;2022-09-09T16:09:15;6.77;;;1.20;;
422;SDS011;198;48.752;9.180;2022-09-09T16:11:40;6.67;;;1.07;;
422;SDS011;198;48.752;9.180;2022-09-09T16:14:06;1.53;;;0.90;;
422;SDS011;198;48.752;9.180;2022-09-09T16:16:32;1.70;;;1.20;;
422;SDS011;198;48.752;9.180;2022-09-09T16:18:58;4.03;;;1.27;;
422;SDS011;198;48.752;9.180;2022-09-09T16:21:29;2.57;;;1.10;;
422;SDS011;198;48.752;9.180;2022-09-09T16:23:57;4.30;;;1.20;;
422;SDS011;198;48.752;9.180;2022-09-09T16:26:24;2.63;;;1.10;;
422;SDS011;198;48.752;9.180;2022-09-09T16:28:52;5.43;;;1.40;;
422;SDS011;198;48.752;9.180;2022-09-09T16:31:20;1.90;;;1.30;;
422;SDS011;198;48.752;9.180;2022-09-09T16:33:47;3.03;;;0.93;;
422;SDS011;198;48.752;9.180;2022-09-09T16:36:14;7.50;;;1.30;;
422;SDS011;198;48.752;9.180;2022-09-09T16:38:42;1.40;;;0.90;;
422;SDS011;198;48.752;9.180;2022-09-09T16:41:08;2.03;;;1.33;;
422;SDS011;198;48.752;9.180;2022-09-09T16:43:35;2.80;;;1.23;;
422;SDS011;198;48.752;9.180;2022-09-09T16:46:17;5.00;;;0.80;;
422;SDS011;198;48.752;9.180;2022-09-09T16:48:44;1.77;;;0.80;;
422;SDS011;198;48.752;9.180;2022-09-09T16:51:18;1.30;;;0.80;;
422;SDS011;198;48.752;9.180;2022-09-09T16:53:46;1.43;;;0.90;;
422;SDS011;198;48.752;9.180;2022-09-09T16:56:13;0.80;;;0.70;;
422;SDS011;198;48.752;9.180;2022-09-09T16:58:42;1.53;;;0.70;;
422;SDS011;198;48.752;9.180;2022-09-09T17:01:09;3.37;;;1.07;;
422;SDS011;198;48.752;9.180;2022-09-09T17:03:36;1.17;;;0.80;;
422;SDS011;198;48.752;9.180;2022-09-09T17:06:02;1.80;;;0.60;;
422;SDS011;198;48.752;9.180;2022-09-09T17:08:29;1.17;;;1.00;;
422;SDS011;198;48.752;9.180;2022-09-09T17:10:55;0.70;;;0.70;;
422;SDS011;198;48.752;9.180;2022-09-09T17:13:21;2.40;;;0.50;;
422;SDS011;198;48.752;9.180;2022-09-09T17:15:47;0.80;;;0.70;;
422;SDS011;198;48.752;9.180;2022-09-09T17:18:12;1.20;;;0.60;;
422;SDS011;198;48.752;9.180;2022-09-09T17:20:38;2.70;;;0.63;;
422;SDS011;198;48.752;9.180;2022-09-09T17:23:06;1.43;;;0.73;;
422;SDS011;198;48.752;9.180;2022-09-09T17:25:32;1.33;;;0.87;;
422;SDS011;198;48.752;9.180;2022-09-09T17:27:58;4.37;;;1.10;;
422;SDS011;198;48.752;9.180;2022-09-09T17:30:25;0.93;;;0.70;;
422;SDS011;198;48.752;9.180;2022-09-09T17:32:51;0.83;;;0.73;;
422;SDS011;198;48.752;9.180;2022-09-09T17:35:16;1.47;;;1.10;;
422;SDS011;198;48.752;9.180;2022-09-09T17:37:42;1.00;;;0.90;;
422;SDS011;198;48.752;9.180;2022-09-09T17:40:09;2.50;;;1.17;;
422;SDS011;198;48.752;9.180;2022-09-09T17:42:34;2.20;;;1.10;;